createdAt,value
2022-12-17T00:02:22.700Z,47.30
2022-12-17T00:05:08.257Z,26.70
2022-12-17T00:07:53.503Z,29.80
2022-12-17T00:10:40.361Z,45.10
2022-12-17T00:13:37.017Z,26.40
2022-12-17T00:16:22.798Z,45.90
2022-12-17T00:19:08.263Z,22.60
2022-12-17T00:21:53.764Z,32.10
2022-12-17T00:24:41.810Z,33.00
2022-12-17T00:27:27.314Z,30.40
2022-12-17T00:30:12.972Z,44.40
2022-12-17T00:32:58.647Z,35.70
2022-12-17T00:35:44.098Z,29.10
2022-12-17T00:38:36.519Z,39.80
2022-12-17T00:41:21.759Z,29.70
2022-12-17T00:44:07.194Z,31.80
2022-12-17T00:46:52.629Z,25.30
2022-12-17T00:49:38.013Z,29.90
2022-12-17T00:52:23.458Z,35.30
2022-12-17T00:55:08.929Z,32.00
2022-12-17T00:57:54.251Z,23.40
2022-12-17T01:00:43.434Z,20.10
2022-12-17T01:03:29.884Z,37.90
2022-12-17T01:06:15.346Z,27.80
2022-12-17T01:09:00.756Z,25.40
2022-12-17T01:11:46.105Z,35.70
2022-12-17T01:14:31.487Z,39.80
2022-12-17T01:17:17.175Z,32.40
2022-12-17T01:20:02.495Z,36.80
2022-12-17T01:22:47.891Z,32.40
2022-12-17T01:25:33.135Z,42.80
2022-12-17T01:28:18.453Z,36.50
2022-12-17T01:31:06.918Z,37.00
2022-12-17T01:33:52.234Z,38.90
2022-12-17T01:36:37.869Z,30.00
2022-12-17T01:39:23.356Z,28.90
2022-12-17T01:42:08.662Z,34.70
2022-12-17T01:45:04.382Z,30.60
2022-12-17T01:47:56.795Z,32.30
2022-12-17T01:50:43.724Z,33.00
2022-12-17T01:53:29.368Z,28.90
2022-12-17T01:56:15.568Z,31.00
2022-12-17T01:59:01.046Z,32.40
2022-12-17T02:01:46.545Z,27.50
2022-12-17T02:04:32.310Z,29.90
2022-12-17T02:07:27.856Z,26.30
2022-12-17T02:10:47.162Z,26.50
2022-12-17T02:13:35.005Z,23.20
2022-12-17T02:16:26.822Z,27.80
2022-12-17T02:19:16.572Z,24.40
2022-12-17T02:22:02.141Z,24.10
2022-12-17T02:24:51.549Z,26.80
2022-12-17T06:49:45.073Z,23.80
2022-12-17T06:52:30.435Z,22.30
2022-12-17T06:55:15.791Z,21.60
2022-12-17T06:58:01.290Z,27.30
2022-12-17T07:00:46.880Z,30.20
2022-12-17T07:03:32.209Z,35.80
2022-12-17T07:06:20.783Z,24.10
2022-12-17T07:09:20.780Z,26.70
2022-12-17T07:12:06.168Z,27.30
2022-12-17T07:14:51.475Z,30.90
2022-12-17T07:17:37.749Z,28.60
2022-12-17T07:20:23.736Z,29.40
2022-12-17T07:23:13.762Z,26.30
2022-12-17T07:25:59.700Z,47.20
2022-12-17T07:28:44.975Z,41.50
2022-12-17T07:31:30.522Z,33.10
2022-12-17T07:34:15.784Z,29.80
2022-12-17T07:37:01.117Z,28.00
2022-12-17T07:39:46.489Z,31.20
2022-12-17T07:42:31.917Z,38.60
2022-12-17T07:45:17.416Z,30.60
2022-12-17T07:48:10.343Z,29.30
2022-12-17T07:50:55.359Z,24.00
2022-12-17T07:53:40.823Z,28.00
2022-12-17T07:56:26.165Z,29.10
2022-12-17T07:59:11.566Z,37.10
2022-12-17T08:01:57.028Z,24.90
2022-12-17T08:04:42.391Z,34.20
2022-12-17T08:07:27.748Z,27.10
2022-12-17T08:10:13.076Z,32.30
2022-12-17T08:12:58.393Z,28.70
2022-12-17T08:15:43.763Z,35.10
2022-12-17T08:18:29.169Z,33.00
2022-12-17T08:21:14.718Z,23.40
2022-12-17T08:24:00.112Z,23.20
2022-12-17T08:26:48.203Z,25.00
2022-12-17T08:29:34.007Z,21.40
2022-12-17T08:32:19.275Z,17.70
2022-12-17T08:35:04.704Z,28.50
2022-12-17T08:37:50.035Z,19.60
2022-12-17T08:40:35.511Z,18.10
2022-12-17T08:43:20.824Z,26.10
2022-12-17T08:46:09.203Z,24.30
2022-12-17T08:48:54.547Z,23.90
2022-12-17T08:51:40.438Z,21.00
2022-12-17T08:54:25.931Z,18.30
2022-12-17T08:57:11.073Z,26.80
2022-12-17T08:59:56.509Z,24.40
2022-12-17T09:02:42.102Z,22.20
2022-12-17T09:05:27.510Z,17.70
2022-12-17T09:08:21.474Z,21.90
2022-12-17T09:11:06.814Z,21.60
2022-12-17T09:13:52.133Z,18.90
2022-12-17T09:16:37.976Z,20.10
2022-12-17T09:19:23.885Z,30.50
2022-12-17T09:22:09.248Z,26.50
2022-12-17T09:24:54.562Z,24.00
2022-12-17T09:27:40.022Z,27.90
2022-12-17T09:30:25.970Z,41.30
2022-12-17T09:33:11.192Z,33.10
2022-12-17T09:35:57.534Z,36.60
2022-12-17T09:38:42.984Z,43.10
2022-12-17T09:41:45.004Z,38.60
2022-12-17T09:44:40.643Z,34.90
2022-12-17T09:47:30.190Z,40.10
2022-12-17T09:50:15.801Z,39.80
2022-12-17T09:53:01.108Z,35.30
2022-12-17T09:56:00.300Z,28.00
2022-12-17T09:58:46.167Z,35.20
2022-12-17T10:01:39.187Z,37.30
2022-12-17T10:04:29.278Z,37.70
2022-12-17T10:07:14.866Z,30.60
2022-12-17T10:10:00.197Z,27.40
2022-12-17T10:12:45.749Z,29.40
2022-12-17T10:15:34.174Z,49.00
2022-12-17T10:18:26.775Z,41.50
2022-12-17T10:21:23.278Z,36.70
2022-12-17T10:24:08.575Z,42.20
2022-12-17T10:26:54.442Z,45.50
2022-12-17T10:29:48.264Z,37.90
2022-12-17T10:32:33.851Z,44.10
2022-12-17T10:35:39.957Z,33.60
2022-12-17T10:38:32.396Z,41.90
2022-12-17T10:41:21.446Z,35.80
2022-12-17T10:44:06.733Z,40.00
2022-12-17T10:46:52.837Z,40.30
2022-12-17T10:49:42.472Z,37.60
2022-12-17T10:52:46.732Z,39.40
2022-12-17T10:55:45.837Z,39.50
2022-12-17T10:58:42.066Z,30.80
2022-12-17T11:01:51.435Z,36.30
2022-12-17T11:04:49.733Z,30.80
2022-12-17T11:07:56.352Z,41.80
2022-12-17T11:10:42.668Z,39.30
2022-12-17T11:13:30.928Z,41.80
2022-12-17T11:16:17.285Z,32.90
2022-12-17T14:34:08.856Z,120.00
2022-12-17T14:36:36.692Z,225.30
2022-12-17T14:39:11.148Z,145.30
2022-12-17T14:41:57.144Z,161.50
2022-12-17T14:44:28.274Z,133.30
2022-12-17T14:47:10.146Z,89.60
2022-12-17T14:49:37.658Z,61.10
2022-12-17T14:52:13.996Z,71.60
2022-12-17T14:54:45.551Z,67.50
2022-12-17T14:57:21.942Z,82.00
2022-12-17T14:59:48.705Z,79.30
2022-12-17T15:02:18.845Z,91.70
2022-12-17T15:04:45.562Z,123.00
2022-12-17T15:07:18.244Z,139.20
2022-12-17T15:09:45.075Z,143.90
2022-12-17T15:12:11.701Z,140.70
2022-12-17T15:14:38.312Z,137.50
2022-12-17T15:17:05.988Z,115.70
2022-12-17T15:19:32.996Z,118.60
2022-12-17T15:21:59.631Z,111.60
2022-12-17T15:24:27.127Z,94.80
2022-12-17T15:26:54.736Z,97.10
2022-12-17T15:29:21.368Z,107.40
2022-12-17T15:31:48.126Z,96.70
2022-12-17T15:34:14.856Z,86.60
2022-12-17T15:36:41.544Z,64.40
2022-12-17T15:39:09.453Z,59.90
2022-12-17T15:41:55.116Z,53.60
2022-12-17T15:44:21.745Z,71.10
2022-12-17T15:46:48.377Z,55.80
2022-12-17T15:49:15.018Z,44.10
2022-12-17T15:51:41.652Z,27.80
2022-12-17T15:54:08.264Z,21.80
2022-12-17T15:56:37.120Z,21.10
2022-12-17T15:59:03.839Z,21.80
2022-12-17T16:01:30.570Z,26.80
2022-12-17T16:03:57.842Z,26.80
2022-12-17T16:06:24.477Z,31.50
2022-12-17T16:08:51.113Z,28.50
2022-12-17T16:11:17.817Z,26.40
2022-12-17T16:13:44.865Z,20.80
2022-12-17T16:16:11.524Z,18.90
2022-12-17T16:18:38.967Z,18.80
2022-12-17T16:21:06.651Z,17.80
2022-12-17T16:23:33.400Z,19.50
2022-12-17T16:26:01.537Z,22.60
2022-12-17T16:28:28.438Z,20.70
2022-12-17T16:30:59.653Z,20.40
2022-12-17T16:33:31.086Z,18.30
2022-12-17T16:36:00.877Z,18.70
2022-12-17T16:38:27.549Z,18.40
2022-12-17T16:40:56.586Z,17.70
2022-12-17T16:43:24.252Z,19.30
2022-12-17T16:45:51.786Z,19.70
2022-12-17T16:48:20.727Z,17.80
2022-12-17T16:50:50.211Z,18.10
2022-12-17T16:53:17.321Z,20.00
2022-12-17T16:55:48.568Z,18.10
2022-12-17T16:58:16.084Z,18.00
2022-12-17T17:00:42.831Z,18.20
2022-12-17T17:03:09.902Z,16.60
2022-12-17T17:05:38.599Z,14.80
2022-12-17T17:08:05.663Z,16.00
2022-12-17T17:10:34.795Z,13.60
2022-12-17T17:13:01.432Z,13.80
2022-12-17T17:15:28.074Z,13.30
2022-12-17T17:18:01.650Z,10.40
2022-12-17T17:20:32.266Z,10.50
2022-12-17T17:22:59.731Z,11.50
2022-12-17T17:25:38.787Z,11.90
2022-12-17T17:28:13.272Z,10.90
2022-12-17T17:30:39.888Z,11.30
2022-12-17T17:33:06.528Z,10.90
2022-12-17T17:35:33.342Z,9.90
2022-12-17T17:38:00.043Z,10.10
2022-12-17T17:40:26.803Z,8.50
2022-12-17T17:42:53.476Z,8.00
2022-12-17T17:45:20.161Z,8.00
2022-12-17T17:47:46.779Z,7.20
2022-12-17T17:50:13.438Z,8.20
2022-12-17T17:52:40.058Z,8.80
2022-12-17T17:55:07.376Z,7.00
2022-12-17T17:57:34.032Z,7.20
2022-12-17T18:00:00.677Z,7.00
2022-12-17T18:02:27.562Z,7.00
2022-12-17T18:04:54.392Z,5.40
2022-12-17T18:07:25.580Z,5.80
2022-12-17T18:09:53.051Z,6.30
2022-12-17T18:12:39.771Z,5.60
2022-12-17T18:15:15.887Z,6.60
2022-12-17T18:17:45.325Z,5.10
2022-12-17T18:20:13.820Z,5.70
2022-12-17T18:22:40.500Z,5.50
2022-12-17T18:25:07.423Z,6.80
2022-12-17T18:27:34.024Z,5.20
2022-12-17T18:30:00.768Z,5.70
2022-12-17T18:32:27.456Z,5.70
2022-12-17T18:34:54.290Z,5.30
2022-12-17T18:37:20.980Z,5.10
2022-12-17T21:37:59.395Z,10.70
2022-12-17T21:40:26.080Z,9.60
2022-12-17T21:43:01.840Z,13.20
2022-12-17T21:45:34.255Z,10.40
2022-12-17T21:48:01.146Z,12.70
2022-12-17T21:50:27.769Z,11.60
2022-12-17T21:52:54.424Z,13.10
2022-12-17T21:55:21.114Z,15.70
2022-12-17T21:57:47.785Z,16.10
2022-12-17T22:00:15.260Z,14.70
2022-12-17T22:02:42.062Z,13.90
2022-12-17T22:05:10.728Z,15.40
2022-12-17T22:07:43.197Z,13.90
2022-12-17T22:10:23.317Z,12.80
2022-12-17T22:13:21.723Z,15.80
2022-12-17T22:15:48.736Z,13.50
2022-12-17T22:18:15.405Z,13.40
2022-12-17T22:20:42.035Z,12.90
2022-12-17T22:23:08.676Z,14.30
2022-12-17T22:25:37.772Z,12.20
2022-12-17T22:28:04.675Z,12.10
2022-12-17T22:30:49.991Z,12.80
2022-12-17T22:33:47.965Z,15.10
2022-12-17T22:38:31.711Z,14.10
2022-12-17T22:44:31.510Z,12.30
